Terminal Aerodrome Forecast
Issued by NWS Twin Cities, MN

Home | Current Version | Previous Version | Graphics & Text | Print | Product List | Glossary On
Versions: 1 2 3 4 5 6 7 8 9 10 11 12 13 14 15
000
FTUS43 KMPX 291510 AAA
TAFSTC
TAF AMD
KSTC 291510Z 2915/3012 26017G25KT 6SM -RA OVC015
     FM291800 30025G33KT P6SM SCT015 BKN030
     FM292200 30020G28KT P6SM FEW100
     FM300000 30012KT P6SM SCT040
     FM300400 27005KT P6SM SKC=

USA.gov is the U.S. government's official web portal to all federal, state and local government web resources and services.